createdAt,value
2023-04-10T00:02:55.006Z,7.39
2023-04-10T00:05:57.769Z,7.34
2023-04-10T00:09:00.568Z,7.28
2023-04-10T00:12:03.557Z,7.20
2023-04-10T00:15:09.537Z,7.13
2023-04-10T00:18:12.903Z,7.03
2023-04-10T00:21:15.640Z,7.06
2023-04-10T00:24:18.288Z,7.10
2023-04-10T00:27:20.920Z,7.04
2023-04-10T00:30:25.342Z,6.99
2023-04-10T00:33:27.958Z,6.85
2023-04-10T00:36:31.540Z,6.76
2023-04-10T00:39:34.183Z,6.73
2023-04-10T00:42:37.200Z,6.67
2023-04-10T00:45:41.849Z,6.51
2023-04-10T00:48:44.545Z,6.48
2023-04-10T00:51:48.818Z,6.50
2023-04-10T00:54:51.549Z,6.42
2023-04-10T00:57:56.611Z,6.38
2023-04-10T01:01:01.020Z,6.42
2023-04-10T01:04:04.221Z,6.30
2023-04-10T01:07:12.253Z,6.25
2023-04-10T01:10:19.153Z,6.29
2023-04-10T01:13:26.655Z,6.22
2023-04-10T01:16:35.103Z,6.12
2023-04-10T01:20:01.033Z,6.09
2023-04-10T01:23:22.685Z,6.02
2023-04-10T01:26:41.145Z,5.97
2023-04-10T01:29:48.959Z,6.02
2023-04-10T01:32:56.952Z,5.92
2023-04-10T01:36:04.304Z,5.90
2023-04-10T01:39:08.617Z,5.78
2023-04-10T01:42:15.080Z,5.76
2023-04-10T01:45:23.169Z,5.66
2023-04-10T01:48:26.598Z,5.59
2023-04-10T01:51:31.515Z,5.64
2023-04-10T01:54:35.318Z,5.62
2023-04-10T01:57:37.946Z,5.66
2023-04-10T02:00:43.138Z,5.62
2023-04-10T02:03:46.205Z,5.59
2023-04-10T02:06:58.670Z,5.53
2023-04-10T02:10:05.954Z,5.50
2023-04-10T02:13:10.042Z,5.46
2023-04-10T02:16:17.350Z,5.35
2023-04-10T02:19:20.997Z,5.39
2023-04-10T02:22:25.540Z,5.45
2023-04-10T02:25:28.295Z,5.42
2023-04-10T02:28:30.936Z,5.38
2023-04-10T02:31:35.046Z,5.38
2023-04-10T02:34:37.734Z,5.38
2023-04-10T02:37:40.507Z,5.36
2023-04-10T02:40:43.118Z,5.33
2023-04-10T02:43:45.731Z,5.33
2023-04-10T02:46:49.745Z,5.27
2023-04-10T02:49:52.548Z,5.26
2023-04-10T02:52:55.465Z,5.24
2023-04-10T02:55:58.091Z,5.23
2023-04-10T02:59:01.520Z,5.25
2023-04-10T03:02:05.664Z,5.21
2023-04-10T03:05:09.093Z,5.27
2023-04-10T03:08:11.695Z,5.28
2023-04-10T03:11:14.333Z,5.22
2023-04-10T03:14:16.949Z,5.20
2023-04-10T03:17:20.890Z,5.16
2023-04-10T03:20:23.468Z,5.08
2023-04-10T03:23:26.489Z,5.04
2023-04-10T03:26:29.239Z,5.03
2023-04-10T03:29:31.881Z,4.97
2023-04-10T03:32:35.998Z,5.00
2023-04-10T03:35:38.726Z,4.98
2023-04-10T03:38:41.511Z,4.99
2023-04-10T03:41:44.179Z,4.99
2023-04-10T03:44:46.766Z,4.95
2023-04-10T03:47:51.079Z,4.96
2023-04-10T03:50:53.700Z,4.89
2023-04-10T03:53:56.460Z,4.88
2023-04-10T03:56:59.211Z,4.86
2023-04-10T04:00:02.702Z,4.87
2023-04-10T04:03:07.006Z,4.78
2023-04-10T04:06:09.834Z,4.81
2023-04-10T04:09:12.539Z,4.84
2023-04-10T04:12:15.411Z,4.85
2023-04-10T04:15:17.994Z,4.82
2023-04-10T04:18:21.983Z,4.77
2023-04-10T04:21:24.553Z,4.81
2023-04-10T04:24:27.205Z,4.71
2023-04-10T04:27:29.822Z,4.67
2023-04-10T04:30:32.610Z,4.75
2023-04-10T04:33:36.591Z,4.75
2023-04-10T04:36:39.176Z,4.74
2023-04-10T04:39:41.805Z,4.75
2023-04-10T04:42:44.395Z,4.68
2023-04-10T04:45:47.103Z,4.70
2023-04-10T04:48:51.304Z,4.75
2023-04-10T04:51:53.878Z,4.79
2023-04-10T04:54:56.465Z,4.81
2023-04-10T04:57:59.113Z,4.85
2023-04-10T05:01:01.895Z,4.97
2023-04-10T05:04:06.062Z,5.00
2023-04-10T05:07:08.750Z,5.09
2023-04-10T05:10:11.586Z,5.12
2023-04-10T05:13:15.723Z,5.17
2023-04-10T05:16:18.387Z,5.29
2023-04-10T05:19:22.488Z,5.38
2023-04-10T05:22:25.132Z,5.40
2023-04-10T05:25:27.926Z,5.45
2023-04-10T05:28:30.705Z,5.59
2023-04-10T05:31:33.399Z,5.72
2023-04-10T05:34:38.627Z,5.82
2023-04-10T05:37:41.708Z,5.89
2023-04-10T05:40:46.780Z,5.97
2023-04-10T05:43:49.750Z,6.01
2023-04-10T05:46:52.447Z,5.97
2023-04-10T05:49:56.559Z,5.89
2023-04-10T05:52:59.436Z,5.91
2023-04-10T05:56:02.257Z,5.86
2023-04-10T05:59:05.172Z,6.03
2023-04-10T06:02:08.105Z,6.20
2023-04-10T06:05:12.434Z,6.38
2023-04-10T06:08:15.420Z,6.57
2023-04-10T06:11:18.366Z,6.74
2023-04-10T06:14:21.343Z,6.97
2023-04-10T06:17:25.737Z,7.17
2023-04-10T06:20:29.961Z,7.31
2023-04-10T06:23:32.644Z,7.44
2023-04-10T06:26:35.416Z,7.56
2023-04-10T06:29:38.079Z,7.66
2023-04-10T06:32:40.829Z,7.81
2023-04-10T06:35:45.037Z,8.03
2023-04-10T06:38:47.802Z,8.32
2023-04-10T06:41:50.677Z,8.60
2023-04-10T06:44:53.550Z,8.97
2023-04-10T06:47:56.488Z,9.42
2023-04-10T06:51:01.603Z,10.02
2023-04-10T06:54:04.402Z,10.73
2023-04-10T06:57:07.825Z,11.57
2023-04-10T07:00:11.735Z,12.80
2023-04-10T07:03:14.631Z,14.20
2023-04-10T07:06:18.819Z,15.24
2023-04-10T07:09:21.640Z,15.67
2023-04-10T07:12:24.461Z,15.42
2023-04-10T07:15:27.171Z,14.71
2023-04-10T07:18:29.954Z,14.10
2023-04-10T07:21:34.130Z,13.50
2023-04-10T07:24:37.514Z,12.98
2023-04-10T07:27:40.268Z,12.72
2023-04-10T07:30:42.972Z,12.71
2023-04-10T07:33:46.733Z,12.73
2023-04-10T07:36:51.023Z,12.89
2023-04-10T07:39:53.850Z,13.00
2023-04-10T07:42:56.600Z,12.99
2023-04-10T07:45:59.652Z,13.09
2023-04-10T07:49:02.459Z,13.24
2023-04-10T07:52:06.595Z,13.37
2023-04-10T07:55:10.606Z,13.58
2023-04-10T07:58:13.642Z,13.75
2023-04-10T08:01:16.783Z,13.80
2023-04-10T08:04:19.774Z,13.91
2023-04-10T08:07:24.283Z,13.94
2023-04-10T08:10:27.133Z,14.11
2023-04-10T08:13:29.944Z,14.19
2023-04-10T08:16:35.286Z,14.23
2023-04-10T08:19:38.058Z,14.54
2023-04-10T08:22:42.191Z,14.54
2023-04-10T08:25:44.946Z,14.56
2023-04-10T08:28:50.105Z,14.52
2023-04-10T08:31:52.844Z,14.40
2023-04-10T08:34:55.884Z,14.37
2023-04-10T08:38:12.691Z,14.43
2023-04-10T08:41:18.800Z,14.57
2023-04-10T08:44:21.544Z,14.72
2023-04-10T08:47:29.033Z,14.84
2023-04-10T08:50:35.244Z,14.86
2023-04-10T08:53:44.521Z,14.98
2023-04-10T08:56:51.414Z,15.14
2023-04-10T08:59:54.539Z,15.42
2023-04-10T09:06:20.672Z,15.32
2023-04-10T09:09:24.691Z,15.57
2023-04-10T09:12:27.552Z,15.83
2023-04-10T09:15:30.278Z,15.89
2023-04-10T09:18:47.301Z,16.23
2023-04-10T09:21:51.520Z,16.49
2023-04-10T09:24:55.634Z,16.73
2023-04-10T09:28:02.488Z,16.80
2023-04-10T09:31:30.657Z,16.72
2023-04-10T09:34:33.376Z,16.94
2023-04-10T09:37:37.482Z,17.10
2023-04-10T09:40:40.418Z,17.30
2023-04-10T09:43:45.801Z,17.56
2023-04-10T09:46:50.641Z,17.75
2023-04-10T09:49:54.763Z,17.90
2023-04-10T09:52:58.932Z,17.94
2023-04-10T09:56:01.914Z,17.97
2023-04-10T09:59:07.007Z,17.96
2023-04-10T10:02:12.421Z,18.14
2023-04-10T10:05:15.662Z,18.29
2023-04-10T10:08:19.063Z,18.31
2023-04-10T10:11:24.910Z,18.42
2023-04-10T10:14:29.136Z,18.45
2023-04-10T10:17:40.393Z,18.54
2023-04-10T10:20:47.350Z,18.68
2023-04-10T10:23:54.194Z,18.73
2023-04-10T10:26:58.251Z,18.75
2023-04-10T10:30:08.414Z,18.88
2023-04-10T10:33:20.565Z,18.82
2023-04-10T10:36:23.739Z,18.84
2023-04-10T10:39:33.668Z,18.62
2023-04-10T10:42:43.427Z,18.60
2023-04-10T10:45:53.492Z,18.60
2023-04-10T10:49:01.800Z,18.72
2023-04-10T10:52:04.653Z,18.73
2023-04-10T10:55:31.392Z,18.80
2023-04-10T10:58:48.117Z,18.86
2023-04-10T11:02:14.076Z,18.87
2023-04-10T11:05:52.153Z,18.67
2023-04-10T11:08:55.314Z,18.83
2023-04-10T11:12:00.049Z,19.00
2023-04-10T11:15:05.021Z,19.26
2023-04-10T11:18:07.751Z,19.37
2023-04-10T11:21:13.420Z,19.49
2023-04-10T11:24:16.391Z,19.57
2023-04-10T11:27:46.459Z,19.62
2023-04-10T11:30:49.399Z,19.70
2023-04-10T11:34:02.417Z,19.64
2023-04-10T11:37:07.191Z,19.74
2023-04-10T11:40:11.846Z,19.85
2023-04-10T11:43:15.351Z,19.97
2023-04-10T11:46:18.857Z,19.97
2023-04-10T11:49:23.067Z,19.96
2023-04-10T11:52:27.674Z,20.24
2023-04-10T11:55:40.804Z,20.30
2023-04-10T11:58:44.147Z,20.32
2023-04-10T12:01:47.987Z,20.51
2023-04-10T12:04:59.667Z,20.60
2023-04-10T12:08:04.920Z,20.73
2023-04-10T12:11:09.648Z,20.77
2023-04-10T12:14:12.389Z,20.67
2023-04-10T12:17:15.421Z,20.76
2023-04-10T12:20:18.699Z,20.88
2023-04-10T12:23:23.408Z,21.10
2023-04-10T12:26:26.265Z,20.87
2023-04-10T12:29:29.261Z,20.92
2023-04-10T12:32:32.895Z,20.89
2023-04-10T12:35:39.633Z,20.79
2023-04-10T12:38:45.014Z,20.89
2023-04-10T12:41:47.777Z,20.98
2023-04-10T12:44:55.312Z,20.89
2023-04-10T12:47:58.282Z,20.68
2023-04-10T12:51:01.287Z,20.47
2023-04-10T12:54:05.321Z,20.32
2023-04-10T12:57:08.555Z,20.19
2023-04-10T13:00:13.558Z,20.06
2023-04-10T13:03:16.586Z,19.95
2023-04-10T13:06:19.581Z,19.84
2023-04-10T13:09:23.808Z,19.83
2023-04-10T13:12:27.172Z,19.89
2023-04-10T13:15:30.126Z,19.98
2023-04-10T13:18:32.945Z,20.13
2023-04-10T13:21:35.728Z,19.97
2023-04-10T13:24:39.850Z,20.14
2023-04-10T13:27:42.669Z,20.12
2023-04-10T13:30:45.640Z,19.94
2023-04-10T13:33:48.848Z,19.94
2023-04-10T13:36:51.798Z,20.01
2023-04-10T13:39:56.682Z,19.76
2023-04-10T13:42:59.600Z,19.68
2023-04-10T13:46:02.280Z,19.89
2023-04-10T13:49:05.078Z,19.83
2023-04-10T13:52:07.839Z,19.88
2023-04-10T13:55:12.048Z,19.99
2023-04-10T13:58:15.328Z,19.90
2023-04-10T14:01:18.317Z,19.79
2023-04-10T14:04:21.320Z,19.62
2023-04-10T14:07:24.160Z,19.59
2023-04-10T14:10:28.430Z,19.56
2023-04-10T14:13:31.104Z,19.50
2023-04-10T14:16:33.803Z,19.49
2023-04-10T14:19:36.661Z,19.53
2023-04-10T14:22:39.475Z,19.52
2023-04-10T14:25:43.688Z,19.51
2023-04-10T14:28:46.336Z,19.50
2023-04-10T14:31:57.664Z,19.56
2023-04-10T14:35:01.249Z,19.53
2023-04-10T14:38:04.593Z,19.54
2023-04-10T14:41:08.964Z,19.50
2023-04-10T14:44:11.744Z,19.53
2023-04-10T14:47:14.552Z,19.46
2023-04-10T14:50:17.523Z,19.59
2023-04-10T14:53:21.706Z,19.70
2023-04-10T14:56:25.806Z,19.76
2023-04-10T14:59:28.688Z,19.75
2023-04-10T15:02:31.475Z,19.87
2023-04-10T15:05:34.286Z,19.94
2023-04-10T15:08:37.015Z,19.92
2023-04-10T15:11:41.414Z,19.87
2023-04-10T15:14:44.178Z,19.85
2023-04-10T15:17:46.891Z,19.69
2023-04-10T15:20:49.558Z,19.75
2023-04-10T15:23:52.613Z,19.59
2023-04-10T15:26:57.708Z,19.41
2023-04-10T15:30:00.490Z,19.28
2023-04-10T15:33:03.304Z,19.25
2023-04-10T15:36:07.605Z,19.24
2023-04-10T15:39:12.219Z,19.15
2023-04-10T15:42:16.798Z,19.01
2023-04-10T15:45:19.828Z,18.88
2023-04-10T15:48:24.691Z,18.86
2023-04-10T15:51:28.099Z,18.79
2023-04-10T15:54:30.842Z,18.72
2023-04-10T15:57:34.988Z,18.74
2023-04-10T16:00:38.195Z,18.63
2023-04-10T16:03:41.466Z,18.63
2023-04-10T16:06:44.321Z,18.53
2023-04-10T16:09:47.082Z,18.46
2023-04-10T16:12:51.341Z,18.43
2023-04-10T16:15:54.037Z,18.40
2023-04-10T16:18:56.821Z,18.31
2023-04-10T16:21:59.579Z,18.28
2023-04-10T16:28:13.413Z,18.27
2023-04-10T16:31:16.455Z,18.24
2023-04-10T16:34:19.141Z,18.25
2023-04-10T16:37:21.815Z,18.27
2023-04-10T16:40:27.653Z,18.21
2023-04-10T16:43:31.824Z,18.17
2023-04-10T16:46:34.708Z,18.11
2023-04-10T16:49:37.489Z,18.01
2023-04-10T16:52:40.216Z,18.06
2023-04-10T16:55:42.831Z,17.98
2023-04-10T16:58:47.118Z,17.91
2023-04-10T17:01:49.766Z,17.83
2023-04-10T17:04:52.436Z,17.77
2023-04-10T17:07:55.036Z,17.65
2023-04-10T17:10:57.671Z,17.55
2023-04-10T17:14:03.203Z,17.62
2023-04-10T17:17:06.466Z,17.53
2023-04-10T17:20:10.692Z,17.47
2023-04-10T17:23:13.521Z,17.46
2023-04-10T17:26:17.617Z,17.41
2023-04-10T17:29:22.280Z,17.38
2023-04-10T17:32:24.954Z,17.30
2023-04-10T17:35:27.600Z,17.26
2023-04-10T17:38:30.229Z,17.21
2023-04-10T17:41:32.845Z,17.33
2023-04-10T17:44:36.970Z,17.36
2023-04-10T17:47:40.203Z,17.30
2023-04-10T17:50:42.815Z,17.23
2023-04-10T17:53:46.158Z,17.16
2023-04-10T17:56:54.905Z,17.13
2023-04-10T18:00:01.614Z,17.28
2023-04-10T18:03:06.557Z,17.19
2023-04-10T18:06:11.286Z,17.15
2023-04-10T18:09:15.798Z,17.13
2023-04-10T18:12:20.189Z,17.09
2023-04-10T18:15:26.547Z,17.35
2023-04-10T18:18:30.662Z,17.20
2023-04-10T18:21:36.153Z,17.04
2023-04-10T18:24:41.002Z,16.95
2023-04-10T18:27:59.748Z,16.86
2023-04-10T18:31:15.003Z,16.76
2023-04-10T18:34:20.245Z,16.63
2023-04-10T18:37:24.500Z,16.44
2023-04-10T18:40:30.065Z,16.24
2023-04-10T18:43:34.112Z,16.10
2023-04-10T18:46:42.653Z,15.97
2023-04-10T18:49:48.240Z,16.13
2023-04-10T18:52:51.991Z,16.31
2023-04-10T18:55:56.528Z,16.50
2023-04-10T18:59:00.634Z,16.62
2023-04-10T19:02:06.434Z,16.72
2023-04-10T19:05:14.548Z,16.79
2023-04-10T19:08:18.910Z,16.76
2023-04-10T19:11:22.982Z,16.89
2023-04-10T19:14:26.832Z,16.97
2023-04-10T19:17:32.122Z,16.98
2023-04-10T19:20:51.209Z,16.90
2023-04-10T19:23:57.697Z,16.81
2023-04-10T19:27:02.761Z,16.95
2023-04-10T19:30:06.918Z,16.80
2023-04-10T19:33:11.997Z,16.77
2023-04-10T19:36:18.120Z,16.73
2023-04-10T19:39:21.694Z,16.63
2023-04-10T19:42:25.501Z,16.57
2023-04-10T19:45:29.716Z,16.46
2023-04-10T19:48:34.922Z,16.51
2023-04-10T19:51:39.223Z,16.48
2023-04-10T19:54:43.371Z,16.42
2023-04-10T19:57:47.904Z,16.43
2023-04-10T20:00:52.240Z,16.43
2023-04-10T20:03:59.858Z,16.37
2023-04-10T20:07:04.550Z,16.48
2023-04-10T20:10:09.280Z,16.42
2023-04-10T20:13:13.224Z,16.35
2023-04-10T20:16:17.335Z,16.26
2023-04-10T20:19:23.074Z,16.28
2023-04-10T20:22:27.158Z,16.37
2023-04-10T20:25:31.187Z,16.40
2023-04-10T20:28:36.036Z,16.36
2023-04-10T20:31:40.050Z,16.31
2023-04-10T20:34:46.254Z,16.33
2023-04-10T20:37:50.240Z,16.25
2023-04-10T20:40:53.711Z,16.15
2023-04-10T20:43:59.809Z,16.10
2023-04-10T20:47:03.588Z,16.24
2023-04-10T20:50:12.291Z,16.33
2023-04-10T20:53:17.643Z,16.24
2023-04-10T20:56:24.926Z,16.25
2023-04-10T20:59:33.914Z,16.38
2023-04-10T21:07:20.899Z,16.41
2023-04-10T21:10:24.637Z,16.41
2023-04-10T21:13:28.540Z,16.42
2023-04-10T21:16:32.721Z,16.45
2023-04-10T21:19:36.789Z,16.41
2023-04-10T21:22:42.942Z,16.38
2023-04-10T21:25:53.514Z,16.26
2023-04-10T21:28:57.442Z,16.21
2023-04-10T21:32:00.729Z,16.27
2023-04-10T21:35:03.613Z,16.17
2023-04-10T21:38:08.186Z,16.08
2023-04-10T21:41:11.333Z,16.06
2023-04-10T21:44:14.040Z,16.18
2023-04-10T21:47:16.706Z,16.19
2023-04-10T21:50:19.559Z,16.10
2023-04-10T21:53:23.712Z,15.99
2023-04-10T21:56:26.481Z,15.93
2023-04-10T21:59:31.735Z,15.95
2023-04-10T22:02:34.680Z,15.93
2023-04-10T22:05:37.430Z,16.07
2023-04-10T22:08:42.035Z,16.15
2023-04-10T22:11:44.896Z,16.14
2023-04-10T22:14:49.220Z,16.10
2023-04-10T22:17:51.975Z,16.06
2023-04-10T22:20:54.936Z,15.95
2023-04-10T22:23:58.969Z,15.82
2023-04-10T22:27:01.921Z,15.90
2023-04-10T22:30:04.998Z,16.06
2023-04-10T22:33:07.775Z,15.95
2023-04-10T22:36:11.133Z,15.94
2023-04-10T22:39:15.776Z,15.90
2023-04-10T22:42:18.679Z,15.99
2023-04-10T22:45:21.495Z,15.95
2023-04-10T22:48:24.319Z,15.94
2023-04-10T22:51:27.615Z,15.82
2023-04-10T22:54:31.770Z,15.75
2023-04-10T22:57:34.854Z,15.72
2023-04-10T23:00:37.751Z,15.61
2023-04-10T23:03:40.522Z,15.55
2023-04-10T23:06:43.216Z,15.68
2023-04-10T23:09:47.250Z,15.62
2023-04-10T23:12:49.915Z,15.55
2023-04-10T23:15:53.356Z,15.52
2023-04-10T23:18:56.424Z,15.50
2023-04-10T23:21:59.471Z,15.56
2023-04-10T23:25:03.593Z,15.54
2023-04-10T23:28:06.599Z,15.54
2023-04-10T23:31:10.123Z,15.46
2023-04-10T23:34:12.784Z,15.49
2023-04-10T23:37:15.441Z,15.49
2023-04-10T23:40:20.791Z,15.50
2023-04-10T23:43:23.696Z,15.43
2023-04-10T23:46:26.577Z,15.55
2023-04-10T23:49:29.828Z,15.59
2023-04-10T23:52:32.647Z,15.69
2023-04-10T23:55:37.195Z,15.66
2023-04-10T23:58:39.876Z,15.69
